createdAt,value
2023-04-02T00:02:31.646Z,81.15
2023-04-02T00:07:33.799Z,81.01
2023-04-02T00:12:35.748Z,81.35
2023-04-02T00:17:37.385Z,81.57
2023-04-02T00:22:44.087Z,81.43
2023-04-02T00:27:46.122Z,81.26
2023-04-02T00:32:48.490Z,81.35
2023-04-02T00:37:50.549Z,81.49
2023-04-02T00:42:54.581Z,81.55
2023-04-02T00:47:58.633Z,81.68
2023-04-02T00:53:09.229Z,81.80
2023-04-02T00:58:30.046Z,82.10
2023-04-02T01:03:35.106Z,81.89
2023-04-02T01:09:06.425Z,82.09
2023-04-02T01:14:20.510Z,82.00
2023-04-02T01:19:45.134Z,81.85
2023-04-02T01:24:47.590Z,81.58
2023-04-02T01:29:58.718Z,81.83
2023-04-02T01:35:01.427Z,81.70
2023-04-02T01:40:21.494Z,81.71
2023-04-02T01:45:23.816Z,81.76
2023-04-02T01:50:31.709Z,81.69
2023-04-02T01:55:42.603Z,81.83
2023-04-02T02:00:51.953Z,81.87
2023-04-02T02:05:55.631Z,81.84
2023-04-02T02:10:59.138Z,82.04
2023-04-02T02:16:03.133Z,82.07
2023-04-02T02:21:09.628Z,82.05
2023-04-02T02:26:13.470Z,82.18
2023-04-02T02:31:22.866Z,82.33
2023-04-02T02:36:35.624Z,82.25
2023-04-02T02:41:45.047Z,82.32
2023-04-02T02:46:52.774Z,82.42
2023-04-02T02:52:04.410Z,82.48
2023-04-02T02:57:17.091Z,82.70
2023-04-02T03:02:19.856Z,82.64
2023-04-02T03:07:25.650Z,82.64
2023-04-02T03:12:36.956Z,82.60
2023-04-02T03:18:34.557Z,82.76
2023-04-02T03:23:42.362Z,82.82
2023-04-02T03:28:52.761Z,83.03
2023-04-02T03:33:59.728Z,83.14
2023-04-02T03:39:21.890Z,83.23
2023-04-02T03:44:35.245Z,83.36
2023-04-02T03:49:47.533Z,83.28
2023-04-02T03:54:53.847Z,83.36
2023-04-02T04:00:21.833Z,83.81
2023-04-02T04:05:30.330Z,83.82
2023-04-02T04:10:34.937Z,84.09
2023-04-02T04:15:48.528Z,84.35
2023-04-02T04:20:57.309Z,84.19
2023-04-02T04:26:19.843Z,84.76
2023-04-02T04:31:30.836Z,85.79
2023-04-02T04:36:41.585Z,86.50
2023-04-02T04:41:47.233Z,86.59
2023-04-02T04:46:54.946Z,87.01
2023-04-02T04:52:06.915Z,86.82
2023-04-02T04:57:29.788Z,86.57
2023-04-02T05:02:40.996Z,86.61
2023-04-02T05:07:48.027Z,86.44
2023-04-02T05:13:05.622Z,85.69
2023-04-02T05:18:24.879Z,84.82
2023-04-02T05:23:30.938Z,84.92
2023-04-02T05:28:39.504Z,85.19
2023-04-02T05:33:46.595Z,85.17
2023-04-02T05:38:51.147Z,85.55
2023-04-02T05:44:08.257Z,85.92
2023-04-02T05:49:20.492Z,86.01
2023-04-02T05:54:34.850Z,85.86
2023-04-02T05:59:47.519Z,85.67
2023-04-02T06:04:56.649Z,86.04
2023-04-02T06:10:15.550Z,86.16
2023-04-02T06:15:23.634Z,86.22
2023-04-02T06:20:33.046Z,86.43
2023-04-02T06:25:39.884Z,86.39
2023-04-02T06:30:44.382Z,86.46
2023-04-02T06:35:47.738Z,86.65
2023-04-02T06:40:59.115Z,85.97
2023-04-02T06:46:15.424Z,85.85
2023-04-02T06:51:41.727Z,85.82
2023-04-02T06:56:52.847Z,86.06
2023-04-02T07:02:37.516Z,86.11
2023-04-02T07:07:41.566Z,85.99
2023-04-02T07:12:45.097Z,86.05
2023-04-02T07:17:47.191Z,85.58
2023-04-02T07:22:49.542Z,84.93
2023-04-02T07:27:52.712Z,84.69
2023-04-02T07:32:54.570Z,84.95
2023-04-02T07:37:56.305Z,84.07
2023-04-02T07:42:58.041Z,83.82
2023-04-02T07:48:08.310Z,84.63
2023-04-02T07:53:28.048Z,84.79
2023-04-02T07:58:31.427Z,83.79
2023-04-02T08:03:33.145Z,83.12
2023-04-02T08:08:35.488Z,83.58
2023-04-02T08:13:37.717Z,83.47
2023-04-02T08:18:39.682Z,83.62
2023-04-02T08:23:41.579Z,82.83
2023-04-02T08:28:43.278Z,83.86
2023-04-02T08:33:45.028Z,82.95
2023-04-02T08:38:46.793Z,82.83
2023-04-02T08:44:14.176Z,82.48
2023-04-02T08:49:20.171Z,82.78
2023-04-02T08:54:28.050Z,82.89
2023-04-02T08:59:38.767Z,83.42
2023-04-02T09:04:41.673Z,83.54
2023-04-02T09:09:48.708Z,83.49
2023-04-02T09:15:14.957Z,84.13
2023-04-02T09:20:26.314Z,84.73
2023-04-02T09:25:32.155Z,84.70
2023-04-02T09:30:58.322Z,85.14
2023-04-02T09:36:00.182Z,85.32
2023-04-02T09:41:07.410Z,85.52
2023-04-02T09:46:23.551Z,85.36
2023-04-02T09:51:28.095Z,85.27
2023-04-02T09:56:32.053Z,84.57
2023-04-02T10:01:40.233Z,84.19
2023-04-02T10:06:50.088Z,83.35
2023-04-02T10:11:55.848Z,82.95
2023-04-02T10:17:01.413Z,82.60
2023-04-02T10:22:15.835Z,82.68
2023-04-02T10:27:42.563Z,82.68
2023-04-02T10:33:02.418Z,82.64
2023-04-02T10:38:14.120Z,82.17
2023-04-02T10:44:09.462Z,81.72
2023-04-02T10:49:21.971Z,81.84
2023-04-02T10:54:33.666Z,81.86
2023-04-02T10:59:39.610Z,81.83
2023-04-02T11:04:46.171Z,81.08
2023-04-02T11:09:52.467Z,80.55
2023-04-02T11:14:56.186Z,80.46
2023-04-02T11:20:36.711Z,79.70
2023-04-02T11:25:39.604Z,78.53
2023-04-02T11:30:42.588Z,77.20
2023-04-02T11:35:44.325Z,76.49
2023-04-02T11:40:56.479Z,76.69
2023-04-02T11:46:05.431Z,76.43
2023-04-02T11:51:22.554Z,77.11
2023-04-02T11:56:36.276Z,77.59
2023-04-02T12:01:56.384Z,77.45
2023-04-02T12:07:34.719Z,77.55
2023-04-02T12:12:38.949Z,77.71
2023-04-02T12:17:40.946Z,77.55
2023-04-02T12:22:52.080Z,77.72
2023-04-02T12:28:18.010Z,77.71
2023-04-02T12:33:19.842Z,77.38
2023-04-02T12:38:47.664Z,77.79
2023-04-02T12:44:01.158Z,77.56
2023-04-02T12:49:25.583Z,77.70
2023-04-02T12:54:27.372Z,77.64
2023-04-02T12:59:36.378Z,77.92
2023-04-02T13:04:50.969Z,76.41
2023-04-02T13:09:58.709Z,76.50
2023-04-02T13:15:34.635Z,76.35
2023-04-02T13:20:41.903Z,75.61
2023-04-02T13:25:43.959Z,74.82
2023-04-02T13:30:46.207Z,74.59
2023-04-02T13:35:48.167Z,75.22
2023-04-02T13:40:51.386Z,75.45
2023-04-02T13:45:55.723Z,75.88
2023-04-02T13:50:57.541Z,75.61
2023-04-02T13:55:59.421Z,76.09
2023-04-02T14:01:01.770Z,76.04
2023-04-02T14:06:16.681Z,76.05
2023-04-02T14:11:28.598Z,75.60
2023-04-02T14:17:01.156Z,75.61
2023-04-02T14:22:30.799Z,75.15
2023-04-02T14:27:53.438Z,75.69
2023-04-02T14:33:13.453Z,76.05
2023-04-02T14:38:24.616Z,76.11
2023-04-02T14:43:44.202Z,76.89
2023-04-02T14:49:07.810Z,77.01
2023-04-02T14:54:19.073Z,77.50
2023-04-02T14:59:53.327Z,77.60
2023-04-02T15:05:40.084Z,77.39
2023-04-02T15:11:12.074Z,78.30
2023-04-02T15:16:22.387Z,78.02
2023-04-02T15:21:55.826Z,77.84
2023-04-02T15:27:14.783Z,78.05
2023-04-02T15:32:29.409Z,77.55
2023-04-02T15:37:46.137Z,77.31
2023-04-02T15:43:22.900Z,77.33
2023-04-02T15:48:49.109Z,76.62
2023-04-02T15:53:59.584Z,76.93
2023-04-02T15:59:26.867Z,76.48
2023-04-02T16:04:55.887Z,76.77
2023-04-02T16:10:10.361Z,76.88
2023-04-02T16:15:23.578Z,77.02
2023-04-02T16:20:31.680Z,76.61
2023-04-02T16:25:48.563Z,76.79
2023-04-02T16:30:56.007Z,77.03
2023-04-02T16:36:10.213Z,76.99
2023-04-02T16:41:58.677Z,76.91
2023-04-02T16:47:21.913Z,76.89
2023-04-02T16:52:36.244Z,77.11
2023-04-02T16:57:44.712Z,77.09
2023-04-02T17:03:02.181Z,77.54
2023-04-02T17:08:15.404Z,77.77
2023-04-02T17:13:25.982Z,78.02
2023-04-02T17:18:27.769Z,78.75
2023-04-02T17:23:31.344Z,78.34
2023-04-02T17:28:38.384Z,78.54
2023-04-02T17:33:40.046Z,78.71
2023-04-02T17:39:01.936Z,78.29
2023-04-02T17:44:39.355Z,78.25
2023-04-02T17:49:46.736Z,77.91
2023-04-02T17:55:12.334Z,77.20
2023-04-02T18:00:31.395Z,77.59
2023-04-02T18:05:32.996Z,77.10
2023-04-02T18:10:56.798Z,77.05
2023-04-02T18:16:02.143Z,77.11
2023-04-02T18:21:21.427Z,77.20
2023-04-02T18:26:35.316Z,77.29
2023-04-02T18:31:51.666Z,77.21
2023-04-02T18:37:15.199Z,77.12
2023-04-02T18:42:47.884Z,77.49
2023-04-02T18:47:59.042Z,77.45
2023-04-02T18:53:12.841Z,78.10
2023-04-02T18:58:27.099Z,77.96
2023-04-02T19:03:39.555Z,78.54
2023-04-02T19:08:51.085Z,78.84
2023-04-02T19:13:52.862Z,79.00
2023-04-02T19:19:17.176Z,79.44
2023-04-02T19:24:38.002Z,80.01
2023-04-02T19:30:21.989Z,80.42
2023-04-02T19:35:35.832Z,80.69
2023-04-02T19:40:37.887Z,80.69
2023-04-02T19:45:45.705Z,80.80
2023-04-02T19:50:49.025Z,81.02
2023-04-02T19:55:50.926Z,80.76
2023-04-02T20:00:52.772Z,80.34
2023-04-02T20:05:56.954Z,80.34
2023-04-02T20:10:59.940Z,80.20
2023-04-02T20:16:04.595Z,80.33
2023-04-02T20:21:07.348Z,80.31
2023-04-02T20:26:09.149Z,80.08
2023-04-02T20:31:11.813Z,80.03
2023-04-02T20:36:16.223Z,80.00
2023-04-02T20:41:19.308Z,80.11
2023-04-02T20:46:22.313Z,79.93
2023-04-02T20:51:24.125Z,79.73
2023-04-02T20:56:27.746Z,79.24
2023-04-02T21:01:30.542Z,79.27
2023-04-02T21:06:36.521Z,79.63
2023-04-02T21:11:38.964Z,79.45
2023-04-02T21:16:41.782Z,79.38
2023-04-02T21:21:44.787Z,79.53
2023-04-02T21:26:47.138Z,79.12
2023-04-02T21:31:48.978Z,79.43
2023-04-02T21:36:51.252Z,78.90
2023-04-02T21:41:56.879Z,78.63
2023-04-02T21:46:59.514Z,78.85
2023-04-02T21:52:21.402Z,78.55
2023-04-02T21:57:23.139Z,78.13
2023-04-02T22:02:24.857Z,78.06
2023-04-02T22:07:26.500Z,77.90
2023-04-02T22:12:28.361Z,77.69
2023-04-02T22:17:30.085Z,77.62
2023-04-02T22:22:31.792Z,77.92
2023-04-02T22:27:33.687Z,77.36
2023-04-02T22:32:36.708Z,77.74
2023-04-02T22:37:38.478Z,77.49
2023-04-02T22:42:40.506Z,77.43
2023-04-02T22:47:42.366Z,77.71
2023-04-02T22:52:45.517Z,77.43
2023-04-02T22:57:47.532Z,77.32
2023-04-02T23:02:49.263Z,77.35
2023-04-02T23:07:53.549Z,77.31
2023-04-02T23:13:17.083Z,77.41
2023-04-02T23:18:18.814Z,77.69
2023-04-02T23:23:20.917Z,77.68
2023-04-02T23:28:23.401Z,77.68
2023-04-02T23:33:25.108Z,78.38
2023-04-02T23:38:27.298Z,78.98
2023-04-02T23:43:33.790Z,79.23
2023-04-02T23:48:38.905Z,80.08
2023-04-02T23:53:45.946Z,80.61
2023-04-02T23:58:48.785Z,80.52
